createdAt,value
2022-09-07T00:02:21.854Z,4166
2022-09-07T00:07:33.970Z,4179
2022-09-07T00:12:46.266Z,4196
2022-09-07T00:17:58.602Z,4196
2022-09-07T00:29:38.709Z,4188
2022-09-07T00:34:51.480Z,4177
2022-09-07T00:40:03.875Z,4175
2022-09-07T00:45:16.061Z,4175
2022-09-07T00:50:28.335Z,4177
2022-09-07T00:55:40.654Z,4162
2022-09-07T01:00:53.001Z,4082
2022-09-07T01:06:05.359Z,4179
2022-09-07T01:11:18.025Z,4190
2022-09-07T01:16:30.428Z,4153
2022-09-07T01:21:42.781Z,4173
2022-09-07T01:26:55.012Z,4170
2022-09-07T01:32:07.756Z,4149
2022-09-07T01:37:20.468Z,4170
2022-09-07T01:42:33.047Z,4185
2022-09-07T01:47:45.631Z,4164
2022-09-07T01:52:58.164Z,4166
2022-09-07T01:58:10.535Z,4112
2022-09-07T02:03:22.791Z,4168
2022-09-07T02:08:35.213Z,4181
2022-09-07T02:13:47.550Z,4164
2022-09-07T02:19:00.081Z,4181
2022-09-07T02:24:12.235Z,4179
2022-09-07T02:29:26.087Z,4155
2022-09-07T02:34:36.731Z,4175
2022-09-07T02:39:49.146Z,4164
2022-09-07T02:45:01.130Z,4162
2022-09-07T02:50:13.295Z,4175
2022-09-07T02:55:25.646Z,4157
2022-09-07T03:00:37.843Z,4153
2022-09-07T03:05:50.046Z,4158
2022-09-07T03:11:02.183Z,4171
2022-09-07T03:16:14.569Z,4170
2022-09-07T03:21:26.836Z,4170
2022-09-07T03:26:39.265Z,4155
2022-09-07T03:31:51.582Z,4151
2022-09-07T03:37:03.953Z,4058
2022-09-07T03:42:16.250Z,4132
2022-09-07T03:47:28.465Z,4153
2022-09-07T03:52:40.786Z,4166
2022-09-07T03:57:52.991Z,4132
2022-09-07T04:03:05.153Z,4160
2022-09-07T04:08:17.560Z,4132
2022-09-07T04:13:30.213Z,4164
2022-09-07T04:18:42.410Z,4145
2022-09-07T04:23:54.828Z,4138
2022-09-07T04:29:07.224Z,4149
2022-09-07T04:34:19.580Z,4151
2022-09-07T04:39:32.052Z,4162
2022-09-07T04:49:56.835Z,4144
2022-09-07T04:55:09.623Z,4155
2022-09-07T05:00:21.852Z,4158
2022-09-07T05:05:34.622Z,4158
2022-09-07T05:10:46.928Z,4077
2022-09-07T05:15:59.594Z,4114
2022-09-07T05:21:11.851Z,4106
2022-09-07T05:26:24.233Z,4045
2022-09-07T05:31:36.667Z,4155
2022-09-07T05:36:49.278Z,4036
2022-09-07T05:42:01.583Z,4039
2022-09-07T05:47:13.934Z,4110
2022-09-07T05:52:26.366Z,4084
2022-09-07T05:57:38.701Z,4153
2022-09-07T06:02:51.736Z,4108
2022-09-07T06:08:04.052Z,4080
2022-09-07T06:13:16.490Z,4103
2022-09-07T06:18:28.788Z,4131
2022-09-07T06:23:41.213Z,4127
2022-09-07T06:28:57.242Z,4084
2022-09-07T06:34:06.037Z,4058
2022-09-07T06:39:18.598Z,4134
2022-09-07T06:44:30.830Z,4147
2022-09-07T06:49:43.367Z,4136
2022-09-07T06:54:59.241Z,4127
2022-09-07T07:00:08.616Z,4134
2022-09-07T07:05:21.153Z,4106
2022-09-07T07:10:33.567Z,4106
2022-09-07T07:15:45.871Z,4056
2022-09-07T07:20:58.437Z,4105
2022-09-07T07:26:10.694Z,4132
2022-09-07T07:31:23.150Z,4092
2022-09-07T07:36:48.421Z,4116
2022-09-07T07:47:13.251Z,4080
2022-09-07T07:57:37.877Z,4136
2022-09-07T08:02:50.574Z,4145
2022-09-07T08:08:02.890Z,4160
2022-09-07T08:13:15.276Z,4145
2022-09-07T08:18:27.663Z,4060
2022-09-07T08:23:39.969Z,4140
2022-09-07T08:28:52.441Z,4116
2022-09-07T08:34:04.744Z,4138
2022-09-07T08:39:17.234Z,4151
2022-09-07T08:44:29.741Z,4147
2022-09-07T08:49:42.160Z,4171
2022-09-07T08:54:54.691Z,4151
2022-09-07T09:00:07.154Z,4114
2022-09-07T09:05:19.906Z,4108
2022-09-07T09:10:34.744Z,4121
2022-09-07T09:15:47.411Z,4112
2022-09-07T09:20:59.685Z,4166
2022-09-07T09:26:12.091Z,4173
2022-09-07T09:31:24.775Z,4188
2022-09-07T09:36:37.367Z,4116
2022-09-07T09:41:54.750Z,4181
2022-09-07T09:52:43.835Z,4179
2022-09-07T09:57:32.004Z,4211
2022-09-07T10:07:56.804Z,4218
2022-09-07T10:13:09.208Z,4168
2022-09-07T10:18:21.582Z,4162
2022-09-07T10:23:33.899Z,4192
2022-09-07T10:34:28.473Z,4196
2022-09-07T10:39:11.000Z,4225
2022-09-07T10:44:23.313Z,4227
2022-09-07T10:49:35.622Z,4177
2022-09-07T10:54:48.152Z,4209
2022-09-07T11:00:08.472Z,4205
2022-09-07T11:05:12.703Z,4186
2022-09-07T11:10:25.209Z,4209
2022-09-07T11:15:37.335Z,4235
2022-09-07T11:20:49.664Z,4222
2022-09-07T11:26:01.984Z,4214
2022-09-07T11:31:14.410Z,4212
2022-09-07T11:36:26.577Z,4227
2022-09-07T11:41:39.068Z,4229
2022-09-07T11:46:51.668Z,4227
2022-09-07T11:52:05.450Z,4231
2022-09-07T11:57:16.345Z,4207
2022-09-07T12:02:48.618Z,4216
2022-09-07T12:07:41.000Z,4237
2022-09-07T12:12:53.315Z,4227
2022-09-07T12:18:05.919Z,4253
2022-09-07T12:23:18.167Z,4240
2022-09-07T12:28:30.415Z,4253
2022-09-07T12:33:42.683Z,4222
2022-09-07T12:38:54.918Z,4227
2022-09-07T12:44:07.222Z,4212
2022-09-07T12:49:20.037Z,4220
2022-09-07T12:54:32.234Z,4251
2022-09-07T12:59:44.639Z,4216
2022-09-07T13:04:57.033Z,4251
2022-09-07T13:15:24.087Z,4237
2022-09-07T13:20:37.744Z,4220
2022-09-07T13:25:46.024Z,4211
2022-09-07T13:31:04.181Z,4199
2022-09-07T13:36:16.931Z,4218
2022-09-07T13:41:29.245Z,4255
2022-09-07T13:46:41.532Z,4211
2022-09-07T13:51:53.932Z,4242
2022-09-07T13:57:06.070Z,4227
2022-09-07T14:02:18.507Z,4251
2022-09-07T14:07:30.982Z,4237
2022-09-07T14:12:43.402Z,4235
2022-09-07T14:17:55.727Z,4250
2022-09-07T14:23:08.224Z,4261
2022-09-07T14:28:20.666Z,4248
2022-09-07T14:33:33.179Z,4253
2022-09-07T14:43:57.326Z,4233
2022-09-07T14:49:09.652Z,4233
2022-09-07T14:54:22.023Z,4261
2022-09-07T14:59:34.409Z,4263
2022-09-07T15:04:46.816Z,4248
2022-09-07T15:09:59.502Z,4274
2022-09-07T15:15:12.016Z,4240
2022-09-07T15:20:24.517Z,4264
2022-09-07T15:25:36.876Z,4259
2022-09-07T15:31:39.538Z,4283
2022-09-07T15:36:01.584Z,4285
2022-09-07T15:41:23.519Z,4270
2022-09-07T15:46:26.054Z,4270
2022-09-07T16:02:03.133Z,4270
2022-09-07T16:07:14.874Z,4266
2022-09-07T16:17:47.112Z,4253
2022-09-07T16:28:03.660Z,4238
2022-09-07T16:33:16.009Z,4259
2022-09-07T16:38:44.641Z,4248
2022-09-07T16:43:40.903Z,4259
2022-09-07T16:48:53.058Z,4257
2022-09-07T16:54:05.608Z,4257
2022-09-07T16:59:17.883Z,4255
2022-09-07T17:04:30.323Z,4255
2022-09-07T17:09:42.700Z,4244
2022-09-07T17:14:54.935Z,4255
2022-09-07T17:20:07.119Z,4253
2022-09-07T17:25:19.442Z,4242
2022-09-07T17:30:31.878Z,4237
2022-09-07T17:35:44.319Z,4229
2022-09-07T17:40:56.551Z,4216
2022-09-07T17:46:09.193Z,4207
2022-09-07T17:51:21.698Z,4237
2022-09-07T17:56:33.600Z,4185
2022-09-07T18:01:46.264Z,4235
2022-09-07T18:06:59.195Z,4244
2022-09-07T18:12:11.512Z,4209
2022-09-07T18:17:23.836Z,4183
2022-09-07T18:22:36.024Z,4216
2022-09-07T18:29:02.955Z,4203
2022-09-07T18:33:00.831Z,4190
2022-09-07T18:38:13.100Z,4227
2022-09-07T18:43:26.039Z,4222
2022-09-07T18:48:38.062Z,4225
2022-09-07T18:53:50.374Z,4201
2022-09-07T18:59:02.776Z,4237
2022-09-07T19:04:15.163Z,4198
2022-09-07T19:09:27.862Z,4203
2022-09-07T19:14:40.231Z,4153
2022-09-07T19:19:52.741Z,4214
2022-09-07T19:25:05.179Z,4205
2022-09-07T19:30:17.794Z,4222
2022-09-07T19:35:30.254Z,4235
2022-09-07T19:40:42.636Z,4207
2022-09-07T19:45:55.086Z,4203
2022-09-07T19:51:07.450Z,4207
2022-09-07T19:56:19.699Z,4220
2022-09-07T20:01:32.002Z,4186
2022-09-07T20:06:44.491Z,4190
2022-09-07T20:11:56.896Z,4194
2022-09-07T20:17:09.531Z,4218
2022-09-07T20:22:21.922Z,4175
2022-09-07T20:27:34.057Z,4164
2022-09-07T20:32:46.531Z,4229
2022-09-07T20:37:58.833Z,4160
2022-09-07T20:43:11.231Z,4181
2022-09-07T20:48:23.792Z,4198
2022-09-07T20:53:36.307Z,4185
2022-09-07T20:58:48.527Z,4194
2022-09-07T21:04:00.956Z,4160
2022-09-07T21:09:13.293Z,4211
2022-09-07T21:14:25.710Z,4196
2022-09-07T21:19:37.949Z,4194
2022-09-07T21:24:50.336Z,4185
2022-09-07T21:30:02.798Z,4186
2022-09-07T21:35:15.679Z,4198
2022-09-07T21:40:28.046Z,4151
2022-09-07T21:45:40.539Z,4166
2022-09-07T21:50:52.775Z,4138
2022-09-07T21:56:05.075Z,4205
2022-09-07T22:01:17.590Z,4164
2022-09-07T22:06:29.748Z,4185
2022-09-07T22:11:45.355Z,4164
2022-09-07T22:16:54.161Z,4179
2022-09-07T22:22:06.725Z,4188
2022-09-07T22:27:19.056Z,4173
2022-09-07T22:32:31.582Z,4177
2022-09-07T22:37:44.017Z,4171
2022-09-07T22:42:56.545Z,4203
2022-09-07T22:48:08.753Z,4158
2022-09-07T22:53:21.168Z,4199
2022-09-07T22:58:34.340Z,4175
2022-09-07T23:03:46.873Z,4153
2022-09-07T23:08:59.192Z,4138
2022-09-07T23:14:11.598Z,4155
2022-09-07T23:19:24.213Z,4171
2022-09-07T23:24:36.566Z,4194
2022-09-07T23:29:48.777Z,4212
2022-09-07T23:35:01.119Z,4211
2022-09-07T23:40:13.510Z,4211
2022-09-07T23:45:25.759Z,4177
2022-09-07T23:50:38.074Z,4158
2022-09-07T23:55:50.405Z,4190
